Pagrindinis puslapis
METAR-TAF:

METAR-TAF

Oro uostai :

Siemreabas, Kambodža

platuma: 13-22N, ilguma: 103-51E, Aukštis: 15 m

Dabartinis oras

Ataskaita buvo paskelbta 34 minutes, ne 21:00 UTC
Vėjas 2 kt iš Šiaurės/Šiaurės Vakarų
Temperatūra 24°C
Drėgmė 89%
Slėgis 1008 hPa
Matomumas: 9000 m
Išsisklaidę debesys ne aukštis 1700 ft

METAR: VDSR 222100Z 34002KT 9000 SCT017 24/22 Q1008

Laikas: 04:34 (21:34 UTC)

Prognozė

Ataskaita buvo paskelbta 4 valandos ir 34 minutes, ne 17:00 UTC
Prognozė galioja nuo 22 metu 18 UTC su 23 metu 12 UTC
Vėjas 8 kt iš Šiaurės
Matomumas 10 km arba daugiau
Išsisklaidę debesys ne aukštis 1700 ft

TAF: VDSR 221700Z 2218/2312 01008KT 9999 SCT017

Orai ataskaitas ir orų prognozės (METAR, TAF).

turimą stotys yra geltonos ir raudonos taškus žemėlapyje.

Perkelti pele per norėdami pamatyti stoties vardą.

Tada spustelėkite, norėdami matyti oro stebėjimo ir prognozės.

Norėdami pakeisti žemėlapį: spustelėkite ant žalios mygtukų su juodo kryžiaus žemyn,; žalią mygtuką su brūkšneliu, jei norite nutolinti; arba žalių rodyklių gretimoms žemėlapius.


METAR-TAF: